Time;durP1;ratioP1;P1;durP2;ratioP2;P2;SDS_P1;SDS_P2;PMS_P1;PMS_P2;Temp;Humidity;BMP_temperature;BMP_pressure;BME280_temperature;BME280_humidity;BME280_pressure;Samples;Min_cycle;Max_cycle;Signal;HPM_P1;HPM_P2
2021/07/05 00:00:11;;;;;;;7.10;4.43;;;;;;;25.05;44.04;99180.09;4490729;31;33870;-84
2021/07/05 00:02:40;;;;;;;4.97;4.22;;;;;;;25.10;43.79;99177.97;4504009;31;34779;-84
2021/07/05 00:05:10;;;;;;;5.35;4.05;;;;;;;25.09;43.85;99181.59;4491353;31;34976;-84
2021/07/05 00:07:38;;;;;;;5.95;4.25;;;;;;;24.98;44.18;99178.81;4504259;31;34524;-84
2021/07/05 00:10:07;;;;;;;4.55;3.60;;;;;;;24.91;44.65;99175.72;4504044;31;34126;-84
2021/07/05 00:12:35;;;;;;;5.87;4.00;;;;;;;24.92;44.29;99173.91;4503918;31;35509;-84
2021/07/05 00:15:04;;;;;;;5.85;3.95;;;;;;;24.99;44.04;99176.03;4490937;31;34121;-84
2021/07/05 00:17:32;;;;;;;5.85;3.90;;;;;;;25.03;44.00;99176.69;4490913;31;33774;-84
2021/07/05 00:19:59;;;;;;;9.15;4.12;;;;;;;24.96;43.97;99175.41;4517998;31;34070;-84
2021/07/05 00:22:27;;;;;;;4.75;4.15;;;;;;;24.95;43.79;99176.34;4503916;31;34812;-84
2021/07/05 00:24:54;;;;;;;5.68;4.10;;;;;;;24.95;43.78;99176.34;4504088;31;34288;-84
2021/07/05 00:27:22;;;;;;;7.20;4.18;;;;;;;25.07;43.37;99172.84;4490845;31;34202;-84
2021/07/05 00:29:49;;;;;;;5.43;3.97;;;;;;;25.08;43.50;99167.41;4518013;31;34619;-84
2021/07/05 00:32:17;;;;;;;6.18;4.00;;;;;;;24.94;43.61;99166.69;4490930;31;34563;-84
2021/07/05 00:34:45;;;;;;;5.03;4.18;;;;;;;24.77;43.87;99176.66;4489704;31;34875;-84
2021/07/05 00:37:12;;;;;;;4.97;4.47;;;;;;;24.82;43.76;99157.72;4518091;31;34346;-84
2021/07/05 00:39:40;;;;;;;5.72;4.12;;;;;;;24.88;43.46;99168.81;4503952;31;33943;-84
2021/07/05 00:42:08;;;;;;;6.45;4.40;;;;;;;24.86;43.08;99165.38;4518078;31;35435;-84
2021/07/05 00:44:37;;;;;;;5.53;4.25;;;;;;;24.87;43.05;99169.75;4503861;31;34351;-84
2021/07/05 00:47:04;;;;;;;4.70;4.20;;;;;;;24.92;42.99;99157.94;4518045;31;33303;-84
2021/07/05 00:49:32;;;;;;;4.03;3.62;;;;;;;25.06;42.79;99158.69;4490761;31;34270;-84
2021/07/05 00:52:07;;;;;;;;;;;;;;;25.01;43.03;99162.66;4504637;31;34521;-84
2021/07/05 00:54:35;;;;;;;4.68;4.18;;;;;;;24.96;43.23;99164.78;4490657;31;35134;-84
2021/07/05 00:57:03;;;;;;;6.25;4.20;;;;;;;25.02;43.00;99164.34;4517909;31;33776;-84
2021/07/05 00:59:32;;;;;;;7.15;4.12;;;;;;;25.01;42.99;99166.12;4490214;31;33403;-84
2021/07/05 01:02:01;;;;;;;6.45;4.18;;;;;;;24.94;43.03;99161.38;4490891;31;35525;-84
2021/07/05 01:04:28;;;;;;;6.03;4.07;;;;;;;24.94;43.03;99164.03;4490466;31;34479;-84
2021/07/05 01:06:55;;;;;;;6.57;4.18;;;;;;;24.93;42.88;99170.31;4490569;31;33560;-84
2021/07/05 01:09:23;;;;;;;6.45;4.12;;;;;;;24.97;42.71;99169.13;4503591;31;33924;-84
2021/07/05 01:12:00;;;;;;;5.78;3.92;;;;;;;24.99;42.74;99167.19;4491148;31;34762;-84
2021/07/05 01:14:27;;;;;;;4.65;3.80;;;;;;;24.96;42.75;99162.94;4490260;31;33579;-84
2021/07/05 01:16:55;;;;;;;6.75;4.55;;;;;;;24.93;42.92;99164.97;4490608;31;33500;-84
2021/07/05 01:19:24;;;;;;;6.35;4.00;;;;;;;24.97;42.77;99163.81;4490126;31;33982;-84
2021/07/05 01:21:53;;;;;;;7.95;4.25;;;;;;;24.88;43.40;99162.63;4503427;31;34909;-84
2021/07/05 01:24:21;;;;;;;8.32;4.53;;;;;;;24.92;43.51;99157.94;4490116;31;34496;-84
2021/07/05 01:26:49;;;;;;;6.10;4.60;;;;;;;24.97;43.46;99161.13;4503472;31;34310;-84
2021/07/05 01:29:16;;;;;;;5.00;4.50;;;;;;;24.86;43.64;99157.41;4490334;31;34721;-84
2021/07/05 01:31:44;;;;;;;5.97;4.18;;;;;;;24.86;43.53;99162.72;4517494;31;34552;-84
2021/07/05 01:34:12;;;;;;;6.95;4.78;;;;;;;24.83;43.77;99154.97;4503338;31;34131;-84
2021/07/05 01:36:40;;;;;;;4.97;4.47;;;;;;;24.87;43.62;99159.12;4503230;31;34258;-84
2021/07/05 01:39:07;;;;;;;4.78;4.28;;;;;;;24.84;43.85;99159.31;4502975;31;33239;-84
2021/07/05 01:41:35;;;;;;;5.78;4.75;;;;;;;24.82;44.34;99160.38;4517503;31;35427;-84
2021/07/05 01:44:03;;;;;;;4.95;4.20;;;;;;;24.74;44.60;99165.34;4490122;31;34234;-84
2021/07/05 01:46:30;;;;;;;4.85;4.35;;;;;;;24.80;44.43;99165.81;4504006;31;33727;-84
2021/07/05 01:48:58;;;;;;;5.45;4.22;;;;;;;24.83;44.33;99167.41;4492246;31;33382;-84
2021/07/05 01:51:26;;;;;;;5.20;4.57;;;;;;;24.77;44.38;99171.34;4519416;31;34840;-84
2021/07/05 01:53:54;;;;;;;6.57;5.03;;;;;;;24.80;44.37;99175.59;4491679;31;34458;-84
2021/07/05 01:56:21;;;;;;;4.75;4.22;;;;;;;24.80;44.59;99176.44;4519240;31;34251;-84
2021/07/05 01:58:49;;;;;;;5.93;4.75;;;;;;;24.73;44.91;99174.28;4492010;31;33606;-84
2021/07/05 02:01:18;;;;;;;4.93;4.43;;;;;;;24.72;45.14;99183.22;4491899;31;34829;-84
2021/07/05 02:03:48;;;;;;;6.85;4.10;;;;;;;24.65;45.26;99182.75;4505404;31;33996;-84
2021/07/05 02:06:16;;;;;;;7.53;4.65;;;;;;;24.74;45.04;99178.66;4504704;31;33526;-84
2021/07/05 02:08:44;;;;;;;5.40;4.30;;;;;;;24.75;45.20;99167.91;4491763;31;34009;-84
2021/07/05 02:11:12;;;;;;;5.97;4.80;;;;;;;24.66;45.76;99179.16;4491784;31;34833;-84
2021/07/05 02:13:40;;;;;;;5.32;4.80;;;;;;;24.66;45.72;99181.81;4504895;31;34879;-84
2021/07/05 02:16:07;;;;;;;5.53;4.85;;;;;;;24.70;45.53;99179.78;4519013;31;33459;-84
2021/07/05 02:18:35;;;;;;;7.90;5.45;;;;;;;24.75;45.78;99178.53;4491585;31;33234;-84
2021/07/05 02:21:05;;;;;;;6.78;4.80;;;;;;;24.70;45.71;99179.78;4504424;31;34665;-84
2021/07/05 02:23:34;;;;;;;5.80;4.37;;;;;;;24.73;45.53;99183.09;4491910;31;33578;-84
2021/07/05 02:26:05;;;;;;;10.20;5.35;;;;;;;24.71;45.68;99186.81;4518941;31;33622;-84
2021/07/05 02:28:35;;;;;;;5.32;4.82;;;;;;;24.70;45.78;99188.62;4504811;31;33891;-84
2021/07/05 02:31:07;;;;;;;6.87;5.12;;;;;;;24.73;46.05;99196.41;4491718;31;34711;-84
2021/07/05 02:33:35;;;;;;;5.87;4.70;;;;;;;24.72;46.34;99192.03;4491546;31;34083;-84
2021/07/05 02:36:06;;;;;;;6.57;5.25;;;;;;;24.81;46.48;99194.13;4491432;31;33923;-84
2021/07/05 02:38:34;;;;;;;5.85;4.85;;;;;;;24.71;46.48;99194.81;4491927;31;33630;-84
2021/07/05 02:41:02;;;;;;;6.60;5.05;;;;;;;24.75;46.39;99193.63;4504588;31;34658;-84
2021/07/05 02:43:30;;;;;;;6.57;5.10;;;;;;;24.75;46.34;99210.44;4491555;31;34173;-84
2021/07/05 02:45:59;;;;;;;5.35;4.85;;;;;;;24.78;46.31;99209.41;4491820;31;33611;-84
2021/07/05 02:48:30;;;;;;;6.55;4.70;;;;;;;24.77;46.48;99208.56;4491794;31;34327;-84
2021/07/05 02:51:01;;;;;;;5.97;5.35;;;;;;;24.75;46.52;99207.78;4504716;31;35680;-84
2021/07/05 02:53:28;;;;;;;10.90;5.35;;;;;;;24.71;46.74;99206.28;4504471;31;34204;-84
2021/07/05 02:55:56;;;;;;;6.47;5.22;;;;;;;24.78;46.56;99209.41;4491663;31;33391;-84
2021/07/05 02:58:24;;;;;;;50.00;8.40;;;;;;;24.77;46.63;99208.56;4477740;31;34283;-84
2021/07/05 03:00:54;;;;;;;7.22;5.32;;;;;;;24.82;46.90;99201.13;4504194;31;34684;-84
2021/07/05 03:03:22;;;;;;;6.10;5.22;;;;;;;24.72;47.31;99205.31;4491288;31;34765;-85
2021/07/05 03:05:50;;;;;;;6.75;5.45;;;;;;;24.63;47.56;99213.91;4504590;31;33177;-84
2021/07/05 03:08:19;;;;;;;7.20;5.35;;;;;;;24.74;47.32;99208.75;4504289;31;33705;-84
2021/07/05 03:10:47;;;;;;;6.80;5.07;;;;;;;24.67;47.23;99214.59;4504364;31;35388;-84
2021/07/05 03:13:19;;;;;;;7.95;5.55;;;;;;;24.80;47.05;99211.03;4504267;31;34276;-85
2021/07/05 03:15:47;;;;;;;6.05;5.45;;;;;;;24.78;47.48;99210.28;4491250;31;32824;-84
2021/07/05 03:18:15;;;;;;;8.23;5.82;;;;;;;24.88;47.52;99221.16;4518558;31;33624;-84
2021/07/05 03:20:44;;;;;;;6.97;5.50;;;;;;;24.92;47.50;99216.47;4504526;31;34451;-84
2021/07/05 03:23:14;;;;;;;8.38;5.40;;;;;;;24.82;47.93;99219.75;4504330;31;34041;-84
2021/07/05 03:25:42;;;;;;;6.28;5.35;;;;;;;24.81;47.83;99219.88;4478368;31;34181;-84
2021/07/05 03:28:12;;;;;;;7.45;5.85;;;;;;;24.83;47.75;99231.25;4491434;31;34300;-84
2021/07/05 03:30:41;;;;;;;7.47;5.75;;;;;;;24.81;47.70;99220.72;4504220;31;34555;-84
2021/07/05 03:33:09;;;;;;;10.80;5.60;;;;;;;24.87;47.87;99227.41;4504061;31;33730;-84
2021/07/05 03:35:37;;;;;;;7.50;6.28;;;;;;;24.87;47.96;99224.75;4503947;31;34285;-83
2021/07/05 03:38:05;;;;;;;6.15;5.47;;;;;;;24.81;48.07;99228.69;4503991;31;34009;-84
2021/07/05 03:40:35;;;;;;;10.02;6.18;;;;;;;24.82;47.85;99230.38;4503949;31;34993;-84
2021/07/05 03:43:03;;;;;;;9.30;5.70;;;;;;;24.79;47.67;99233.25;4503123;31;34957;-84
2021/07/05 03:45:33;;;;;;;8.50;5.82;;;;;;;24.81;47.70;99231.37;4503068;31;33459;-84
2021/07/05 03:48:01;;;;;;;7.28;5.57;;;;;;;24.82;48.00;99234.84;4504236;31;33751;-84
2021/07/05 03:50:30;;;;;;;9.90;6.07;;;;;;;24.84;48.26;99230.31;4504095;31;33980;-84
2021/07/05 03:52:57;;;;;;;9.07;5.25;;;;;;;24.81;48.55;99227.84;4490934;31;34252;-84
2021/07/05 03:55:30;;;;;;;6.47;5.32;;;;;;;24.86;48.40;99234.53;4504315;31;34328;-84
2021/07/05 03:57:59;;;;;;;8.95;6.00;;;;;;;24.77;48.59;99242.31;4491283;31;34399;-84
2021/07/05 04:00:31;;;;;;;7.37;5.95;;;;;;;24.75;48.76;99242.34;4504077;31;34827;-84
2021/07/05 04:02:59;;;;;;;7.57;6.20;;;;;;;24.76;48.87;99240.56;4504168;31;33657;-84
2021/07/05 04:05:27;;;;;;;9.45;5.85;;;;;;;24.72;49.02;99252.38;4491096;31;33307;-84
2021/07/05 04:07:55;;;;;;;9.02;5.28;;;;;;;24.60;48.99;99248.72;4504043;31;34053;-84
2021/07/05 04:10:23;;;;;;;6.57;5.07;;;;;;;24.50;49.26;99247.59;4517984;31;34704;-84
2021/07/05 04:12:50;;;;;;;5.93;5.22;;;;;;;24.66;48.86;99248.28;4504146;31;34808;-84
2021/07/05 04:15:18;;;;;;;8.27;5.60;;;;;;;24.69;48.54;99258.72;4490605;31;33068;-84
2021/07/05 04:17:46;;;;;;;5.93;5.32;;;;;;;24.68;49.02;99246.37;4518015;31;33738;-84
2021/07/05 04:20:17;;;;;;;7.72;6.10;;;;;;;24.78;49.03;99255.50;4503837;31;35470;-84
2021/07/05 04:22:45;;;;;;;8.35;5.50;;;;;;;24.79;48.57;99254.53;4503833;31;34152;-84
2021/07/05 04:25:15;;;;;;;6.60;5.72;;;;;;;24.86;48.20;99247.84;4504033;31;33525;-84
2021/07/05 04:27:43;;;;;;;7.60;5.97;;;;;;;24.82;47.78;99264.97;4518229;31;34220;-84
2021/07/05 04:30:12;;;;;;;7.57;5.30;;;;;;;24.80;48.14;99256.25;4490740;31;34957;-84
2021/07/05 04:32:40;;;;;;;7.25;5.53;;;;;;;24.87;48.03;99257.53;4503913;31;34261;-84
2021/07/05 04:35:11;;;;;;;8.48;5.45;;;;;;;24.94;47.75;99259.81;4490808;31;33446;-84
2021/07/05 04:37:39;;;;;;;7.57;5.20;;;;;;;24.84;48.15;99263.06;4490835;31;34064;-84
2021/07/05 04:40:10;;;;;;;7.93;5.80;;;;;;;24.93;47.45;99263.41;4503681;31;35500;-84
2021/07/05 04:42:39;;;;;;;7.70;5.62;;;;;;;24.87;47.71;99270.84;4490693;31;33610;-84
2021/07/05 04:45:08;;;;;;;9.07;6.20;;;;;;;24.85;47.98;99267.44;4503677;31;33276;-84
2021/07/05 04:47:36;;;;;;;7.45;5.90;;;;;;;24.92;47.65;99269.66;4503853;31;34001;-84
2021/07/05 04:50:09;;;;;;;8.68;5.50;;;;;;;24.97;47.97;99275.53;4490505;31;34343;-84
2021/07/05 04:52:38;;;;;;;7.97;5.47;;;;;;;24.94;48.23;99273.94;4490760;31;33494;-84
2021/07/05 04:55:07;;;;;;;12.10;6.32;;;;;;;25.01;48.35;99277.06;4490225;31;32821;-85
2021/07/05 04:57:36;;;;;;;7.30;5.87;;;;;;;25.04;48.20;99272.38;4503708;31;34822;-84
2021/07/05 05:00:06;;;;;;;7.82;6.03;;;;;;;25.10;47.91;99273.75;4517613;31;34610;-84
2021/07/05 05:02:33;;;;;;;7.45;5.82;;;;;;;25.06;47.87;99275.75;4503489;31;34174;-84
2021/07/05 05:05:03;;;;;;;8.23;5.70;;;;;;;25.18;47.19;99272.28;4518339;31;33895;-84
2021/07/05 05:07:31;;;;;;;7.00;5.97;;;;;;;25.16;47.15;99270.69;4503616;31;33952;-87
2021/07/05 05:10:02;;;;;;;7.60;5.85;;;;;;;25.15;47.63;99279.63;4503598;31;34669;-84
2021/07/05 05:12:30;;;;;;;7.00;5.80;;;;;;;25.17;47.98;99277.72;4491110;31;33708;-84
2021/07/05 05:14:57;;;;;;;9.73;6.03;;;;;;;25.21;47.35;99281.88;4490372;31;33805;-84
2021/07/05 05:17:25;;;;;;;10.40;5.32;;;;;;;25.29;47.09;99277.72;4503300;31;34696;-84
2021/07/05 05:19:53;;;;;;;11.45;5.82;;;;;;;25.27;47.05;99281.47;4490098;31;34444;-85
2021/07/05 05:22:21;;;;;;;14.05;6.43;;;;;;;25.20;47.39;99280.19;4502889;31;34036;-85
2021/07/05 05:24:48;;;;;;;7.93;5.60;;;;;;;25.21;48.04;99279.19;4490482;31;32845;-85
2021/07/05 05:27:16;;;;;;;12.23;5.65;;;;;;;25.45;47.24;99269.56;4517441;31;33986;-85
2021/07/05 05:29:43;;;;;;;10.45;5.80;;;;;;;25.54;46.82;99269.78;4503362;31;34765;-85
2021/07/05 05:32:11;;;;;;;9.18;5.55;;;;;;;25.53;47.13;99277.91;4489970;31;33913;-85
2021/07/05 05:34:38;;;;;;;14.68;6.25;;;;;;;25.57;46.81;99268.72;4490231;31;33188;-85
2021/07/05 05:37:06;;;;;;;8.13;5.62;;;;;;;25.59;46.99;99272.13;4489923;31;33279;-85
2021/07/05 05:39:33;;;;;;;7.78;5.25;;;;;;;25.86;45.89;99274.69;4502958;31;35542;-85
2021/07/05 05:42:01;;;;;;;8.55;5.55;;;;;;;25.86;45.42;99286.19;4488074;31;34443;-83
2021/07/05 05:44:31;;;;;;;5.37;4.87;;;;;;;25.98;45.72;99292.47;4515414;31;33731;-83
2021/07/05 05:46:58;;;;;;;8.02;5.68;;;;;;;25.92;46.45;99284.87;4513520;31;33874;-83
2021/07/05 05:49:26;;;;;;;6.68;4.65;;;;;;;26.06;45.31;99282.94;4499212;31;34494;-83
2021/07/05 05:51:54;;;;;;;7.18;5.18;;;;;;;26.16;44.68;99286.69;4499093;31;33404;-83
2021/07/05 05:54:21;;;;;;;6.05;4.75;;;;;;;26.14;44.15;99280.62;4499399;31;35219;-83
2021/07/05 05:56:52;;;;;;;7.97;4.95;;;;;;;26.20;44.10;99285.50;4499278;31;34362;-83
2021/07/05 05:59:20;;;;;;;7.97;5.00;;;;;;;26.33;43.02;99284.63;4513804;31;34631;-83
2021/07/05 06:01:50;;;;;;;6.75;4.87;;;;;;;26.37;43.10;99288.75;4501134;31;34346;-83
2021/07/05 06:04:20;;;;;;;6.95;5.22;;;;;;;26.38;42.97;99294.00;4501784;31;33531;-83
2021/07/05 06:06:48;;;;;;;6.85;4.72;;;;;;;26.11;43.18;99291.50;4501231;31;34077;-83
2021/07/05 06:09:15;;;;;;;7.85;4.93;;;;;;;26.19;43.48;99283.81;4501048;31;34389;-84
2021/07/05 06:11:43;;;;;;;7.70;4.55;;;;;;;26.25;43.08;99285.16;4500920;31;33039;-83
2021/07/05 06:14:10;;;;;;;6.18;4.55;;;;;;;26.17;43.18;99285.72;4501109;31;33517;-83
2021/07/05 06:16:40;;;;;;;8.00;4.87;;;;;;;26.39;43.31;99293.03;4515246;31;34029;-83
2021/07/05 06:19:08;;;;;;;5.87;4.78;;;;;;;26.53;42.64;99303.53;4500785;31;33981;-84
2021/07/05 06:21:36;;;;;;;7.15;4.70;;;;;;;26.40;42.78;99299.22;4487927;31;34882;-83
2021/07/05 06:24:05;;;;;;;5.07;4.57;;;;;;;26.54;43.03;99296.38;4500970;31;34313;-84
2021/07/05 06:26:33;;;;;;;8.50;5.28;;;;;;;26.53;42.36;99305.38;4500702;31;33349;-83
2021/07/05 06:29:00;;;;;;;6.75;5.18;;;;;;;26.71;42.17;99301.34;4515418;31;34479;-83
2021/07/05 06:31:29;;;;;;;9.07;5.00;;;;;;;26.64;42.09;99302.75;4488089;31;34651;-83
2021/07/05 06:33:57;;;;;;;6.40;4.40;;;;;;;26.71;42.07;99304.00;4503334;31;33319;-83
2021/07/05 06:36:24;;;;;;;5.15;4.45;;;;;;;26.74;43.07;99301.94;4502836;31;34203;-82
2021/07/05 06:38:52;;;;;;;8.45;5.12;;;;;;;26.71;43.29;99306.69;4503115;31;34670;-83
2021/07/05 06:41:19;;;;;;;7.28;5.12;;;;;;;26.78;43.38;99303.47;4503087;31;34039;-84
2021/07/05 06:43:47;;;;;;;8.85;5.07;;;;;;;26.88;43.48;99303.66;4517402;31;34320;-83
2021/07/05 06:46:16;;;;;;;7.15;5.30;;;;;;;26.91;43.02;99303.41;4477280;31;33353;-82
2021/07/05 06:48:44;;;;;;;9.43;5.28;;;;;;;26.79;43.47;99309.66;4495748;31;35224;-82
2021/07/05 06:51:12;;;;;;;11.55;4.95;;;;;;;26.84;43.45;99315.50;4500706;31;34066;-82
2021/07/05 06:53:39;;;;;;;7.65;5.50;;;;;;;26.98;43.22;99323.31;4499530;31;33342;-82
2021/07/05 06:56:07;;;;;;;9.35;5.00;;;;;;;27.00;43.15;99315.22;4495565;31;34293;-82
2021/07/05 06:58:35;;;;;;;8.55;5.18;;;;;;;27.02;42.40;99318.62;4473104;31;34691;-82
2021/07/05 07:01:03;;;;;;;8.93;5.50;;;;;;;26.91;42.16;99323.91;4499128;31;34215;-82
2021/07/05 07:03:31;;;;;;;8.63;5.87;;;;;;;27.06;41.83;99328.94;4502082;31;33480;-82
2021/07/05 07:05:58;;;;;;;9.07;5.53;;;;;;;27.03;41.83;99329.16;4504927;31;33779;-82
2021/07/05 07:08:26;;;;;;;7.93;5.50;;;;;;;26.97;42.24;99339.47;4510371;31;34527;-82
2021/07/05 07:10:54;;;;;;;8.40;6.00;;;;;;;26.98;42.85;99350.00;4477784;31;34104;-83
2021/07/05 07:13:21;;;;;;;16.12;10.82;;;;;;;26.89;42.61;99355.19;4480445;31;34274;-83
2021/07/05 07:15:53;;;;;;;9.57;7.60;;;;;;;26.82;42.17;99360.13;4497194;31;34787;-84
2021/07/05 07:21:00;;;;;;;10.40;6.53;;;;;;;26.78;42.22;99366.66;4502199;31;34165;-84
2021/07/05 07:23:28;;;;;;;10.38;6.90;;;;;;;26.85;42.48;99365.22;4501687;31;34694;-83
2021/07/05 07:25:55;;;;;;;7.03;5.55;;;;;;;26.79;43.55;99368.37;4500852;31;33963;-83
2021/07/05 07:28:23;;;;;;;9.05;5.95;;;;;;;26.79;42.81;99368.37;4500358;31;34620;-83
2021/07/05 07:30:51;;;;;;;12.20;5.43;;;;;;;26.77;42.85;99367.59;4500150;31;34284;-82
2021/07/05 07:33:18;;;;;;;9.13;5.90;;;;;;;26.83;42.31;99364.50;4499168;31;33664;-82
2021/07/05 07:35:47;;;;;;;6.62;5.28;;;;;;;26.90;42.08;99365.75;4499134;31;33954;-83
2021/07/05 07:38:15;;;;;;;7.55;5.47;;;;;;;26.83;42.75;99372.50;4499353;31;34595;-83
2021/07/05 07:40:43;;;;;;;10.65;5.72;;;;;;;26.76;44.42;99379.25;4484379;31;34173;-83
2021/07/05 07:43:11;;;;;;;6.40;5.72;;;;;;;26.88;43.88;99375.69;4498199;31;33331;-83
2021/07/05 07:45:39;;;;;;;7.68;5.47;;;;;;;26.97;43.71;99377.69;4492359;31;33729;-83
2021/07/05 07:48:06;;;;;;;5.70;4.97;;;;;;;27.01;43.59;99378.28;4496629;31;34315;-83
2021/07/05 07:50:34;;;;;;;7.62;5.50;;;;;;;27.23;42.61;99375.72;4497298;31;34962;-83
2021/07/05 07:53:02;;;;;;;8.60;5.03;;;;;;;27.21;42.12;99375.84;4496876;31;33254;-83
2021/07/05 07:55:29;;;;;;;6.78;4.85;;;;;;;27.25;42.74;99382.66;4497157;31;33982;-82
2021/07/05 07:57:57;;;;;;;10.85;4.85;;;;;;;27.31;41.68;99376.87;4497340;31;35616;-83
2021/07/05 08:00:29;;;;;;;8.23;5.43;;;;;;;27.33;41.90;99371.41;4498550;31;34188;-85
2021/07/05 08:02:57;;;;;;;12.32;6.30;;;;;;;27.32;41.75;99377.72;4485477;31;32468;-84
2021/07/05 08:05:24;;;;;;;8.20;5.40;;;;;;;27.39;41.86;99379.84;4472306;31;34172;-85
2021/07/05 08:07:52;;;;;;;12.23;6.20;;;;;;;27.60;42.46;99382.69;4483472;32;34556;-85
2021/07/05 08:10:20;;;;;;;7.43;5.03;;;;;;;27.75;42.21;99368.16;4497569;31;34248;-86
2021/07/05 08:12:48;;;;;;;9.07;5.62;;;;;;;27.80;41.41;99378.50;4499108;31;34259;-87
2021/07/05 08:15:17;;;;;;;6.55;5.18;;;;;;;27.93;40.26;99365.91;4498821;31;34134;-86
2021/07/05 08:17:47;;;;;;;7.32;4.85;;;;;;;27.99;40.04;99362.72;4486926;31;33897;-87
2021/07/05 08:20:21;;;;;;;8.40;5.53;;;;;;;28.13;41.64;99362.53;4501336;31;34930;-86
2021/07/05 08:22:51;;;;;;;7.80;4.43;;;;;;;28.27;40.22;99364.97;4479664;31;33717;-86
2021/07/05 08:25:19;;;;;;;6.90;4.95;;;;;;;28.36;39.56;99356.19;4493546;31;34747;-86
2021/07/05 08:27:47;;;;;;;7.45;4.80;;;;;;;28.43;39.08;99357.41;4490990;31;34703;-86
2021/07/05 08:30:20;;;;;;;7.22;4.78;;;;;;;28.48;39.57;99354.41;4487711;31;34930;-85
2021/07/05 08:32:52;;;;;;;5.25;4.70;;;;;;;28.52;39.03;99351.34;4490404;31;32728;-85
2021/07/05 08:35:22;;;;;;;13.38;5.15;;;;;;;28.73;38.79;99354.13;4486903;31;34867;-85
2021/07/05 08:37:53;;;;;;;7.75;5.32;;;;;;;28.69;39.42;99350.00;4489216;31;34611;-86
2021/07/05 08:40:22;;;;;;;5.75;4.78;;;;;;;28.82;40.56;99353.37;4489215;31;34605;-85
2021/07/05 08:42:50;;;;;;;10.60;5.55;;;;;;;29.01;38.54;99350.03;4469890;31;33761;-86
2021/07/05 08:45:18;;;;;;;7.85;4.78;;;;;;;29.24;37.83;99359.72;4460817;31;33539;-86
2021/07/05 08:47:49;;;;;;;7.37;5.03;;;;;;;29.26;37.71;99353.22;4491514;31;34820;-84
2021/07/05 08:50:18;;;;;;;5.50;4.97;;;;;;;29.35;37.33;99351.63;4485866;31;34332;-84
2021/07/05 08:52:45;;;;;;;7.93;5.40;;;;;;;29.33;38.35;99353.59;4485913;31;33461;-84
2021/07/05 08:55:17;;;;;;;6.43;5.00;;;;;;;29.30;39.05;99349.34;4499297;31;35305;-85
2021/07/05 08:57:45;;;;;;;8.80;5.18;;;;;;;29.56;38.00;99355.16;4510336;31;34720;-85
2021/07/05 09:00:21;;;;;;;7.37;4.85;;;;;;;29.55;36.47;99369.53;4488560;31;33979;-86
2021/07/05 09:02:50;;;;;;;8.38;4.75;;;;;;;29.58;37.00;99363.91;4496023;31;34455;-85
2021/07/05 09:05:17;;;;;;;6.55;4.90;;;;;;;29.67;37.24;99365.00;4479991;31;34274;-86
2021/07/05 09:08:05;;;;;;;7.15;5.03;;;;;;;29.70;37.31;99368.25;4505071;31;34418;-86
2021/07/05 09:10:52;;;;;;;6.45;4.95;;;;;;;29.57;37.47;99372.09;4491895;31;34389;-86
2021/07/05 09:13:22;;;;;;;5.95;5.22;;;;;;;29.63;37.95;99383.16;4500518;31;33698;-85
2021/07/05 09:15:53;;;;;;;7.80;5.07;;;;;;;29.54;38.22;99381.25;4482843;31;33336;-85
2021/07/05 09:18:44;;;;;;;8.88;5.50;;;;;;;29.55;37.96;99380.25;4505192;31;34529;-83
2021/07/05 09:21:21;;;;;;;5.32;4.82;;;;;;;29.42;37.68;99379.59;4487635;31;33480;-84
2021/07/05 09:24:06;;;;;;;8.43;5.03;;;;;;;29.84;36.89;99375.97;4486874;31;33484;-84
2021/07/05 09:26:36;;;;;;;6.93;5.45;;;;;;;30.04;36.22;99374.28;4480571;31;34742;-84
2021/07/05 09:29:25;;;;;;;6.10;5.45;;;;;;;29.58;39.08;99384.50;4499531;31;34226;-83
2021/07/05 09:31:56;;;;;;;6.25;5.20;;;;;;;29.91;37.17;99387.88;4517062;31;33929;-84
2021/07/05 09:34:33;;;;;;;7.25;5.32;;;;;;;29.95;37.91;99378.56;4516344;31;34136;-84
2021/07/05 09:37:21;;;;;;;11.38;5.62;;;;;;;29.84;37.14;99372.44;4498830;31;33944;-84
2021/07/05 09:40:01;;;;;;;9.10;5.60;;;;;;;30.06;37.28;99365.12;4502311;31;34656;-84
2021/07/05 09:42:34;;;;;;;9.87;5.27;;;;;;;30.24;36.71;99369.88;4502523;31;34624;-84
2021/07/05 09:45:06;;;;;;;7.53;6.53;;;;;;;30.40;36.40;99357.69;4516818;31;34275;-84
2021/07/05 09:47:33;;;;;;;;;;;;;;;30.76;35.88;99357.06;4498949;31;34729;-85
2021/07/05 09:50:16;;;;;;;8.23;5.72;;;;;;;30.98;36.64;99353.31;4472947;31;34276;-85
2021/07/05 09:52:44;;;;;;;7.00;5.37;;;;;;;31.17;34.79;99360.53;4485940;31;33572;-85
2021/07/05 09:55:14;;;;;;;6.93;5.45;;;;;;;31.19;34.65;99351.34;4512766;31;33594;-85
2021/07/05 09:57:46;;;;;;;5.68;4.82;;;;;;;31.32;34.37;99356.44;4501071;31;33272;-85
2021/07/05 10:00:22;;;;;;;8.30;5.43;;;;;;;31.11;35.98;99359.28;4516016;31;34367;-85
2021/07/05 10:02:54;;;;;;;6.93;4.78;;;;;;;31.16;34.48;99351.66;4486409;31;34193;-85
2021/07/05 10:05:22;;;;;;;11.15;5.32;;;;;;;31.15;34.46;99355.31;4500568;31;34560;-85
2021/07/05 10:08:08;;;;;;;6.12;5.53;;;;;;;31.01;35.44;99354.88;4500351;31;34834;-86
2021/07/05 10:10:39;;;;;;;9.30;5.50;;;;;;;30.99;35.76;99354.16;4500706;31;35435;-85
2021/07/05 10:13:12;;;;;;;7.95;5.95;;;;;;;30.79;36.94;99359.47;4491398;31;33803;-90
2021/07/05 10:15:39;;;;;;;8.02;5.43;;;;;;;31.07;36.81;99357.84;4488407;31;33142;-91
2021/07/05 10:18:07;;;;;;;9.00;5.12;;;;;;;31.22;35.90;99361.81;4488117;31;34203;-87
2021/07/05 10:20:43;;;;;;;6.47;5.37;;;;;;;30.71;36.54;99361.16;4488426;31;35374;-92
2021/07/05 10:23:16;;;;;;;11.75;5.68;;;;;;;30.92;36.28;99353.87;4473862;31;34353;-87
2021/07/05 10:25:48;;;;;;;8.38;4.78;;;;;;;31.03;36.47;99361.81;4493847;31;33509;-89
2021/07/05 10:28:17;;;;;;;7.43;4.97;;;;;;;31.24;34.75;99348.22;4488855;31;34694;-91
2021/07/05 10:30:48;;;;;;;5.95;5.18;;;;;;;31.08;36.26;99348.81;4488383;31;34300;-89
2021/07/05 10:33:17;;;;;;;7.22;5.40;;;;;;;31.15;36.34;99351.75;4469370;31;33449;-89
2021/07/05 10:35:51;;;;;;;7.40;5.43;;;;;;;31.18;36.03;99344.28;4483944;31;32972;-87
2021/07/05 10:38:23;;;;;;;8.80;5.37;;;;;;;31.23;35.75;99339.34;4490383;31;34791;-88
2021/07/05 10:40:53;;;;;;;9.77;5.75;;;;;;;31.20;36.36;99350.38;4482121;31;35183;-89
2021/07/05 10:43:41;;;;;;;8.95;5.43;;;;;;;31.15;36.14;99355.31;4482687;31;34773;-89
2021/07/05 10:46:10;;;;;;;9.38;5.60;;;;;;;31.31;35.76;99355.59;4488377;31;32938;-88
2021/07/05 10:48:41;;;;;;;10.30;5.60;;;;;;;31.16;35.68;99356.16;4477798;31;34234;-90
2021/07/05 10:51:11;;;;;;;7.00;5.07;;;;;;;31.47;34.20;99354.22;4488095;31;34301;-86
2021/07/05 10:53:43;;;;;;;7.15;5.50;;;;;;;31.37;35.77;99344.28;4486043;31;33621;-87
2021/07/05 10:56:30;;;;;;;;;;;;;;;31.19;35.44;99339.78;4483393;31;33453;-85
2021/07/05 10:59:18;;;;;;;5.70;4.97;;;;;;;31.40;35.56;99333.22;4512253;31;34328;-85
2021/07/05 11:01:47;;;;;;;7.30;4.97;;;;;;;31.68;33.44;99330.69;4462510;31;34477;-85
2021/07/05 11:04:31;;;;;;;11.15;5.53;;;;;;;31.82;34.40;99336.47;4486987;31;33558;-86
2021/07/05 11:07:15;;;;;;;6.78;5.22;;;;;;;31.62;34.64;99344.72;4468201;31;34294;-86
2021/07/05 11:09:51;;;;;;;6.45;4.72;;;;;;;31.67;33.63;99339.72;4487501;31;34329;-87
2021/07/05 11:12:30;;;;;;;10.80;5.25;;;;;;;31.71;32.94;99347.41;4496533;31;35562;-85
2021/07/05 11:14:58;;;;;;;7.07;4.78;;;;;;;31.57;33.66;99339.75;4493787;31;34515;-87
2021/07/05 11:17:26;;;;;;;10.25;5.12;;;;;;;31.64;34.28;99340.03;4497969;31;33492;-88
2021/07/05 11:19:55;;;;;;;9.00;5.20;;;;;;;31.72;33.74;99340.16;4480547;31;33297;-86
2021/07/05 11:23:04;;;;;;;7.47;5.10;;;;;;;31.94;32.22;99335.31;4474828;32;35038;-89
2021/07/05 11:25:34;;;;;;;6.53;5.20;;;;;;;31.79;33.98;99338.56;4499746;31;35072;-90
2021/07/05 11:28:03;;;;;;;7.62;4.60;;;;;;;31.47;34.48;99324.66;4474597;31;34228;-86
2021/07/05 11:30:36;;;;;;;6.18;5.03;;;;;;;31.57;33.50;99328.19;4488013;31;33963;-94
